Friday, November 16, 2018, 2:08 AM GMT
Back to Local

CYHU, Saint Hubert Airport

Location: , , Canada Lat: 45.517
Local Time: 2:08 AM GMT ( 2:08 GMT) Lon: -73.417
Time Zone: GMT Elev: 88 ft

Show me the last for .
Show Coded

Time T Td Feel RH Dir Speed Gust Alt SLP Vis Weather Sky Remarks
2018-11-16 01:00 21 14 13 73 30° 7 - 30.30 30.31 9 OVC200 None
2018-11-16 00:00 21 14 13 73 10° 7 - 30.33 30.34 9 OVC200 None
2018-11-15 23:00 21 12 14 67 40° 6 - 30.35 30.36 9 OVC220 None
2018-11-15 22:00 21 12 14 67 40° 6 - 30.37 30.38 9 BKN210 OVC230 None
2018-11-15 21:00 23 10 15 57 90° 7 - 30.42 30.42 9 BKN230 None
2018-11-15 20:00 23 9 15 53 110° 7 - 30.44 30.45 9 BKN240 None
2018-11-15 19:00 23 10 15 57 90° 7 - 30.45 30.46 9 CLR None
2018-11-15 18:00 23 9 15 53 100° 7 - 30.48 30.49 9 CLR Pressure falling rapidly
2018-11-15 17:00 21 9 - 57 Variable 2 - 30.53 30.54 9 CLR Pressure falling rapidly
2018-11-15 16:00 19 10 10 67 90° 7 - 30.57 30.58 9 CLR None
2018-11-15 15:00 18 10 9 72 90° 6 - 30.59 30.60 9 CLR None
2018-11-15 14:00 16 9 9 72 60° 5 - 30.61 30.62 9 CLR None
2018-11-15 13:00 14 9 5 78 40° 6 - 30.63 30.64 9 CLR None
2018-11-15 12:00 10 7 - 84 Variable 2 - 30.64 30.65 9 CLR None
2018-11-15 11:00 12 7 - 78 160° 2 - 30.64 30.65 9 CLR None
2018-11-15 10:00 12 7 - 78 - Calm - 30.63 30.64 9 CLR None
2018-11-15 09:00 12 7 - 78 - Calm - 30.63 30.64 9 CLR None
2018-11-15 08:00 12 5 6 72 200° 3 - 30.64 30.65 9 CLR None
2018-11-15 07:00 10 7 4 84 160° 3 - 30.63 30.63 9 CLR None
2018-11-15 06:00 12 5 - 72 - Calm - 30.60 30.61 9 CLR None
2018-11-15 05:00 14 3 6 61 310° 5 - 30.60 30.61 9 CLR None
2018-11-15 04:00 16 3 7 56 260° 6 - 30.62 30.63 9 CLR None
2018-11-15 03:00 14 3 4 61 260° 7 - 30.60 30.60 9 CLR None

Support USWX by starting your Amazon purchase here.